sensor_id;sensor_type;location;lat;lon;timestamp;pressure;altitude;pressure_sealevel;temperature;humidity
57600;BME280;43426;43.594;24.334;2023-11-21T00:00:13;100963.72;;;2.47;100.00
57600;BME280;43426;43.594;24.334;2023-11-21T00:02:39;100952.59;;;2.53;100.00
57600;BME280;43426;43.594;24.334;2023-11-21T00:05:09;100900.91;;;2.07;100.00
57600;BME280;43426;43.594;24.334;2023-11-21T00:07:36;100923.16;;;2.06;100.00
57600;BME280;43426;43.594;24.334;2023-11-21T00:10:02;100953.16;;;2.21;100.00
57600;BME280;43426;43.594;24.334;2023-11-21T00:12:28;100942.31;;;2.11;100.00
57600;BME280;43426;43.594;24.334;2023-11-21T00:14:55;100945.50;;;2.16;100.00
57600;BME280;43426;43.594;24.334;2023-11-21T00:17:20;100952.31;;;2.08;100.00
57600;BME280;43426;43.594;24.334;2023-11-21T00:19:46;100945.72;;;2.13;100.00
57600;BME280;43426;43.594;24.334;2023-11-21T00:22:11;100927.88;;;1.90;100.00
57600;BME280;43426;43.594;24.334;2023-11-21T00:24:36;100918.44;;;1.85;100.00
57600;BME280;43426;43.594;24.334;2023-11-21T00:27:02;100915.88;;;1.84;99.89
57600;BME280;43426;43.594;24.334;2023-11-21T00:29:28;100958.00;;;2.03;99.96
57600;BME280;43426;43.594;24.334;2023-11-21T00:31:53;100939.63;;;1.87;100.00
57600;BME280;43426;43.594;24.334;2023-11-21T00:34:18;100915.19;;;1.69;100.00
57600;BME280;43426;43.594;24.334;2023-11-21T00:36:44;100957.94;;;1.79;100.00
57600;BME280;43426;43.594;24.334;2023-11-21T00:39:10;100953.38;;;1.68;100.00
57600;BME280;43426;43.594;24.334;2023-11-21T00:41:37;100919.22;;;1.62;100.00
57600;BME280;43426;43.594;24.334;2023-11-21T00:44:02;100955.38;;;1.77;100.00
57600;BME280;43426;43.594;24.334;2023-11-21T00:46:28;100904.66;;;1.55;100.00
57600;BME280;43426;43.594;24.334;2023-11-21T00:48:54;100944.31;;;1.83;100.00
57600;BME280;43426;43.594;24.334;2023-11-21T00:51:20;100941.13;;;1.65;100.00
57600;BME280;43426;43.594;24.334;2023-11-21T00:53:47;100913.09;;;1.48;100.00
57600;BME280;43426;43.594;24.334;2023-11-21T00:56:13;100914.38;;;1.43;100.00
57600;BME280;43426;43.594;24.334;2023-11-21T00:58:39;100953.91;;;1.60;100.00
57600;BME280;43426;43.594;24.334;2023-11-21T01:01:07;100923.06;;;1.45;100.00
57600;BME280;43426;43.594;24.334;2023-11-21T01:03:33;100954.13;;;1.57;100.00
57600;BME280;43426;43.594;24.334;2023-11-21T01:05:58;100914.34;;;1.30;99.14
57600;BME280;43426;43.594;24.334;2023-11-21T01:08:24;100930.75;;;1.24;98.83
57600;BME280;43426;43.594;24.334;2023-11-21T01:10:49;100922.78;;;1.24;99.53
57600;BME280;43426;43.594;24.334;2023-11-21T01:13:15;100951.06;;;1.25;100.00
57600;BME280;43426;43.594;24.334;2023-11-21T01:15:40;100946.75;;;1.09;100.00
57600;BME280;43426;43.594;24.334;2023-11-21T01:18:07;100956.44;;;1.23;100.00
57600;BME280;43426;43.594;24.334;2023-11-21T01:20:35;100958.59;;;1.31;100.00
57600;BME280;43426;43.594;24.334;2023-11-21T01:23:00;100917.97;;;1.16;100.00
57600;BME280;43426;43.594;24.334;2023-11-21T01:25:26;100951.16;;;1.36;100.00
57600;BME280;43426;43.594;24.334;2023-11-21T01:27:51;100911.81;;;1.28;100.00
57600;BME280;43426;43.594;24.334;2023-11-21T01:30:17;100940.09;;;1.42;100.00
57600;BME280;43426;43.594;24.334;2023-11-21T01:32:43;100906.41;;;1.04;100.00
57600;BME280;43426;43.594;24.334;2023-11-21T01:35:09;100935.94;;;1.25;100.00
57600;BME280;43426;43.594;24.334;2023-11-21T01:37:36;100937.09;;;1.34;100.00
57600;BME280;43426;43.594;24.334;2023-11-21T01:40:02;100935.81;;;1.40;100.00
57600;BME280;43426;43.594;24.334;2023-11-21T01:42:30;100895.88;;;1.15;100.00
57600;BME280;43426;43.594;24.334;2023-11-21T01:44:55;100915.75;;;1.23;100.00
57600;BME280;43426;43.594;24.334;2023-11-21T01:47:21;100916.19;;;1.16;100.00
57600;BME280;43426;43.594;24.334;2023-11-21T01:49:47;100920.97;;;1.11;100.00
57600;BME280;43426;43.594;24.334;2023-11-21T01:52:13;100919.03;;;1.13;100.00
57600;BME280;43426;43.594;24.334;2023-11-21T01:54:40;100939.00;;;1.19;100.00
57600;BME280;43426;43.594;24.334;2023-11-21T01:57:06;100918.63;;;1.07;100.00
57600;BME280;43426;43.594;24.334;2023-11-21T01:59:36;100875.53;;;0.89;100.00
57600;BME280;43426;43.594;24.334;2023-11-21T02:02:06;100888.84;;;1.01;100.00
57600;BME280;43426;43.594;24.334;2023-11-21T02:04:35;100902.97;;;1.02;100.00
57600;BME280;43426;43.594;24.334;2023-11-21T02:07:04;100895.44;;;0.96;100.00
57600;BME280;43426;43.594;24.334;2023-11-21T02:09:33;100917.75;;;1.19;100.00
57600;BME280;43426;43.594;24.334;2023-11-21T02:11:59;100916.91;;;1.18;100.00
57600;BME280;43426;43.594;24.334;2023-11-21T02:14:26;100927.03;;;1.26;100.00
57600;BME280;43426;43.594;24.334;2023-11-21T02:16:53;100889.69;;;1.02;100.00
57600;BME280;43426;43.594;24.334;2023-11-21T02:19:20;100931.38;;;1.27;100.00
57600;BME280;43426;43.594;24.334;2023-11-21T02:21:51;100925.09;;;1.28;100.00
57600;BME280;43426;43.594;24.334;2023-11-21T02:24:21;100902.03;;;1.16;100.00
57600;BME280;43426;43.594;24.334;2023-11-21T02:26:48;100923.94;;;1.19;100.00
57600;BME280;43426;43.594;24.334;2023-11-21T02:29:14;100904.34;;;0.95;100.00
57600;BME280;43426;43.594;24.334;2023-11-21T02:31:42;100918.41;;;1.23;100.00
57600;BME280;43426;43.594;24.334;2023-11-21T02:34:16;100895.22;;;0.99;100.00
57600;BME280;43426;43.594;24.334;2023-11-21T02:36:45;100923.06;;;1.19;100.00
57600;BME280;43426;43.594;24.334;2023-11-21T02:39:11;100896.06;;;0.99;100.00
57600;BME280;43426;43.594;24.334;2023-11-21T02:41:37;100895.44;;;0.96;100.00
57600;BME280;43426;43.594;24.334;2023-11-21T02:44:04;100904.34;;;0.82;100.00
57600;BME280;43426;43.594;24.334;2023-11-21T02:46:32;100917.97;;;0.90;100.00
57600;BME280;43426;43.594;24.334;2023-11-21T02:49:03;100888.38;;;0.69;100.00
57600;BME280;43426;43.594;24.334;2023-11-21T02:51:37;100919.03;;;0.88;100.00
57600;BME280;43426;43.594;24.334;2023-11-21T02:54:04;100871.50;;;0.70;100.00
57600;BME280;43426;43.594;24.334;2023-11-21T02:56:33;100881.16;;;0.71;100.00
57600;BME280;43426;43.594;24.334;2023-11-21T02:58:59;100904.88;;;0.87;100.00
57600;BME280;43426;43.594;24.334;2023-11-21T03:01:25;100902.19;;;0.74;100.00
57600;BME280;43426;43.594;24.334;2023-11-21T03:03:51;100904.03;;;0.74;100.00
57600;BME280;43426;43.594;24.334;2023-11-21T03:06:18;100873.94;;;0.73;100.00
57600;BME280;43426;43.594;24.334;2023-11-21T03:08:43;100874.16;;;0.70;100.00
57600;BME280;43426;43.594;24.334;2023-11-21T03:11:09;100900.53;;;0.99;100.00
57600;BME280;43426;43.594;24.334;2023-11-21T03:13:34;100845.16;;;0.67;100.00
57600;BME280;43426;43.594;24.334;2023-11-21T03:16:00;100899.03;;;0.95;100.00
57600;BME280;43426;43.594;24.334;2023-11-21T03:18:25;100919.97;;;0.99;100.00
57600;BME280;43426;43.594;24.334;2023-11-21T03:20:52;100885.22;;;0.77;100.00
57600;BME280;43426;43.594;24.334;2023-11-21T03:23:18;100910.94;;;0.76;100.00
57600;BME280;43426;43.594;24.334;2023-11-21T03:25:44;100886.03;;;0.64;100.00
57600;BME280;43426;43.594;24.334;2023-11-21T03:28:09;100906.00;;;0.70;100.00
57600;BME280;43426;43.594;24.334;2023-11-21T03:30:35;100921.97;;;0.83;100.00
57600;BME280;43426;43.594;24.334;2023-11-21T03:33:00;100903.28;;;0.84;100.00
57600;BME280;43426;43.594;24.334;2023-11-21T03:35:26;100879.25;;;0.73;100.00
57600;BME280;43426;43.594;24.334;2023-11-21T03:37:52;100908.91;;;0.93;100.00
57600;BME280;43426;43.594;24.334;2023-11-21T03:40:17;100892.13;;;0.79;100.00
57600;BME280;43426;43.594;24.334;2023-11-21T03:42:43;100892.09;;;0.66;100.00
57600;BME280;43426;43.594;24.334;2023-11-21T03:45:08;100885.38;;;0.61;100.00
57600;BME280;43426;43.594;24.334;2023-11-21T03:47:34;100903.00;;;0.49;100.00
57600;BME280;43426;43.594;24.334;2023-11-21T03:50:00;100918.06;;;0.48;100.00
57600;BME280;43426;43.594;24.334;2023-11-21T03:52:26;100907.41;;;0.36;100.00
57600;BME280;43426;43.594;24.334;2023-11-21T03:54:52;100920.56;;;0.37;100.00
57600;BME280;43426;43.594;24.334;2023-11-21T03:57:17;100911.25;;;0.44;100.00
57600;BME280;43426;43.594;24.334;2023-11-21T03:59:43;100920.28;;;0.42;100.00
57600;BME280;43426;43.594;24.334;2023-11-21T04:02:09;100877.22;;;0.24;100.00
57600;BME280;43426;43.594;24.334;2023-11-21T04:04:35;100904.25;;;0.43;100.00
57600;BME280;43426;43.594;24.334;2023-11-21T04:07:01;100877.38;;;0.35;100.00
57600;BME280;43426;43.594;24.334;2023-11-21T04:09:27;100910.75;;;0.52;100.00
57600;BME280;43426;43.594;24.334;2023-11-21T04:11:53;100876.50;;;0.34;100.00
57600;BME280;43426;43.594;24.334;2023-11-21T04:14:19;100901.97;;;0.64;100.00
57600;BME280;43426;43.594;24.334;2023-11-21T04:16:44;100902.47;;;0.57;100.00
57600;BME280;43426;43.594;24.334;2023-11-21T04:19:10;100882.03;;;0.44;100.00
57600;BME280;43426;43.594;24.334;2023-11-21T04:21:37;100908.00;;;0.66;100.00
57600;BME280;43426;43.594;24.334;2023-11-21T04:24:02;100884.66;;;0.59;100.00
57600;BME280;43426;43.594;24.334;2023-11-21T04:26:28;100880.63;;;0.66;100.00
57600;BME280;43426;43.594;24.334;2023-11-21T04:28:53;100902.75;;;0.79;100.00
57600;BME280;43426;43.594;24.334;2023-11-21T04:31:19;100905.50;;;0.78;100.00
57600;BME280;43426;43.594;24.334;2023-11-21T04:33:44;100901.25;;;0.75;100.00
57600;BME280;43426;43.594;24.334;2023-11-21T04:36:10;100921.94;;;0.57;100.00
57600;BME280;43426;43.594;24.334;2023-11-21T04:38:35;100932.00;;;0.52;100.00
57600;BME280;43426;43.594;24.334;2023-11-21T04:41:01;100931.97;;;0.39;100.00
57600;BME280;43426;43.594;24.334;2023-11-21T04:43:26;100930.59;;;0.46;100.00
57600;BME280;43426;43.594;24.334;2023-11-21T04:45:52;100905.03;;;0.18;100.00
57600;BME280;43426;43.594;24.334;2023-11-21T04:48:17;100941.06;;;0.35;100.00
57600;BME280;43426;43.594;24.334;2023-11-21T04:50:43;100941.34;;;0.30;100.00
57600;BME280;43426;43.594;24.334;2023-11-21T04:53:08;100923.50;;;0.20;100.00
57600;BME280;43426;43.594;24.334;2023-11-21T04:55:34;100908.06;;;0.12;100.00
57600;BME280;43426;43.594;24.334;2023-11-21T04:57:59;100890.16;;;0.15;100.00
57600;BME280;43426;43.594;24.334;2023-11-21T05:00:25;100885.00;;;0.27;100.00
57600;BME280;43426;43.594;24.334;2023-11-21T05:02:50;100929.22;;;0.54;100.00
57600;BME280;43426;43.594;24.334;2023-11-21T05:05:16;100903.81;;;0.37;100.00
57600;BME280;43426;43.594;24.334;2023-11-21T05:07:41;100933.97;;;0.48;100.00
57600;BME280;43426;43.594;24.334;2023-11-21T05:10:08;100928.78;;;0.47;100.00
57600;BME280;43426;43.594;24.334;2023-11-21T05:12:37;100919.16;;;0.59;100.00
57600;BME280;43426;43.594;24.334;2023-11-21T05:15:06;100933.53;;;0.69;100.00
57600;BME280;43426;43.594;24.334;2023-11-21T05:17:39;100933.69;;;0.80;100.00
57600;BME280;43426;43.594;24.334;2023-11-21T05:20:08;100932.31;;;0.88;100.00
57600;BME280;43426;43.594;24.334;2023-11-21T05:22:35;100895.38;;;0.70;100.00
57600;BME280;43426;43.594;24.334;2023-11-21T05:25:02;100931.31;;;0.89;100.00
57600;BME280;43426;43.594;24.334;2023-11-21T05:27:29;100883.03;;;0.56;100.00
57600;BME280;43426;43.594;24.334;2023-11-21T05:29:56;100936.44;;;0.92;100.00
57600;BME280;43426;43.594;24.334;2023-11-21T05:32:22;100899.66;;;0.85;100.00
57600;BME280;43426;43.594;24.334;2023-11-21T05:34:48;100902.88;;;0.91;100.00
57600;BME280;43426;43.594;24.334;2023-11-21T05:37:14;100929.16;;;1.21;100.00
57600;BME280;43426;43.594;24.334;2023-11-21T05:39:39;100907.66;;;1.11;100.00
57600;BME280;43426;43.594;24.334;2023-11-21T05:42:05;100909.66;;;0.95;100.00
57600;BME280;43426;43.594;24.334;2023-11-21T05:44:31;100940.94;;;1.04;100.00
57600;BME280;43426;43.594;24.334;2023-11-21T05:46:57;100898.94;;;0.83;100.00
57600;BME280;43426;43.594;24.334;2023-11-21T05:49:24;100911.91;;;1.01;100.00
57600;BME280;43426;43.594;24.334;2023-11-21T05:51:54;100930.94;;;1.08;100.00
57600;BME280;43426;43.594;24.334;2023-11-21T05:54:19;100935.41;;;1.07;100.00
57600;BME280;43426;43.594;24.334;2023-11-21T05:56:45;100879.25;;;0.73;100.00
57600;BME280;43426;43.594;24.334;2023-11-21T05:59:12;100944.97;;;1.10;100.00
57600;BME280;43426;43.594;24.334;2023-11-21T06:01:37;100953.38;;;1.29;100.00
57600;BME280;43426;43.594;24.334;2023-11-21T06:04:04;100926.81;;;1.16;100.00
57600;BME280;43426;43.594;24.334;2023-11-21T06:06:30;100955.63;;;1.48;100.00
57600;BME280;43426;43.594;24.334;2023-11-21T06:08:56;100958.69;;;1.55;100.00
57600;BME280;43426;43.594;24.334;2023-11-21T06:11:22;100947.00;;;1.70;100.00
57600;BME280;43426;43.594;24.334;2023-11-21T06:13:47;100904.56;;;1.43;100.00
57600;BME280;43426;43.594;24.334;2023-11-21T06:16:13;100951.97;;;1.75;100.00
57600;BME280;43426;43.594;24.334;2023-11-21T06:18:41;100964.31;;;1.89;100.00
57600;BME280;43426;43.594;24.334;2023-11-21T06:21:10;100961.22;;;1.95;100.00
57600;BME280;43426;43.594;24.334;2023-11-21T06:23:35;100930.16;;;1.83;100.00
57600;BME280;43426;43.594;24.334;2023-11-21T06:26:01;100919.00;;;1.78;100.00
57600;BME280;43426;43.594;24.334;2023-11-21T06:28:26;100941.50;;;1.98;100.00
57600;BME280;43426;43.594;24.334;2023-11-21T06:30:57;100926.28;;;2.00;100.00
57600;BME280;43426;43.594;24.334;2023-11-21T06:33:25;100883.84;;;1.85;100.00
57600;BME280;43426;43.594;24.334;2023-11-21T06:35:52;100906.41;;;2.17;100.00
57600;BME280;43426;43.594;24.334;2023-11-21T06:38:20;100917.13;;;2.28;100.00
57600;BME280;43426;43.594;24.334;2023-11-21T06:40:46;100952.19;;;2.46;100.00
57600;BME280;43426;43.594;24.334;2023-11-21T06:43:16;100944.84;;;2.50;100.00
57600;BME280;43426;43.594;24.334;2023-11-21T06:45:45;100953.53;;;2.52;100.00
57600;BME280;43426;43.594;24.334;2023-11-21T06:48:13;100917.19;;;2.40;100.00
57600;BME280;43426;43.594;24.334;2023-11-21T06:50:41;100945.66;;;2.75;100.00
57600;BME280;43426;43.594;24.334;2023-11-21T06:53:09;100942.91;;;2.87;100.00
57600;BME280;43426;43.594;24.334;2023-11-21T06:55:36;100934.94;;;2.87;100.00
57600;BME280;43426;43.594;24.334;2023-11-21T06:58:04;100912.38;;;2.80;100.00
57600;BME280;43426;43.594;24.334;2023-11-21T07:00:30;100915.06;;;2.92;100.00
57600;BME280;43426;43.594;24.334;2023-11-21T07:02:58;100923.34;;;3.11;100.00
57600;BME280;43426;43.594;24.334;2023-11-21T07:05:28;100918.28;;;3.19;100.00
57600;BME280;43426;43.594;24.334;2023-11-21T07:07:56;100920.97;;;3.31;100.00
57600;BME280;43426;43.594;24.334;2023-11-21T07:10:24;100899.75;;;3.29;100.00
57600;BME280;43426;43.594;24.334;2023-11-21T07:12:50;100926.56;;;3.62;100.00
57600;BME280;43426;43.594;24.334;2023-11-21T07:15:18;100935.91;;;3.79;100.00
57600;BME280;43426;43.594;24.334;2023-11-21T07:17:45;100904.50;;;3.82;100.00
57600;BME280;43426;43.594;24.334;2023-11-21T07:20:14;100932.06;;;4.15;100.00
57600;BME280;43426;43.594;24.334;2023-11-21T07:22:43;100936.06;;;4.32;100.00
57600;BME280;43426;43.594;24.334;2023-11-21T07:25:09;100917.09;;;4.35;100.00
57600;BME280;43426;43.594;24.334;2023-11-21T07:27:46;100880.94;;;4.31;100.00
57600;BME280;43426;43.594;24.334;2023-11-21T07:30:12;100915.84;;;4.83;100.00
57600;BME280;43426;43.594;24.334;2023-11-21T07:32:41;100918.44;;;4.94;100.00
57600;BME280;43426;43.594;24.334;2023-11-21T07:35:08;100921.44;;;5.22;100.00
57600;BME280;43426;43.594;24.334;2023-11-21T07:37:40;100927.06;;;5.19;100.00
57600;BME280;43426;43.594;24.334;2023-11-21T07:40:07;100893.75;;;5.12;100.00
57600;BME280;43426;43.594;24.334;2023-11-21T07:42:34;100917.34;;;5.49;100.00
57600;BME280;43426;43.594;24.334;2023-11-21T07:45:00;100917.84;;;5.64;100.00
57600;BME280;43426;43.594;24.334;2023-11-21T07:47:26;100887.28;;;5.67;100.00
57600;BME280;43426;43.594;24.334;2023-11-21T07:49:54;100916.72;;;6.07;100.00
57600;BME280;43426;43.594;24.334;2023-11-21T07:52:22;100895.59;;;6.14;100.00
57600;BME280;43426;43.594;24.334;2023-11-21T07:54:48;100933.16;;;6.53;99.92
57600;BME280;43426;43.594;24.334;2023-11-21T07:57:17;100920.31;;;6.76;99.38
57600;BME280;43426;43.594;24.334;2023-11-21T07:59:43;100923.25;;;7.03;98.16
57600;BME280;43426;43.594;24.334;2023-11-21T08:02:15;100927.59;;;7.33;96.57
57600;BME280;43426;43.594;24.334;2023-11-21T08:04:46;100926.25;;;7.57;94.19
57600;BME280;43426;43.594;24.334;2023-11-21T08:07:15;100921.81;;;7.93;93.11
57600;BME280;43426;43.594;24.334;2023-11-21T08:09:42;100921.22;;;8.27;91.69
57600;BME280;43426;43.594;24.334;2023-11-21T08:12:10;100916.13;;;8.52;89.13
57600;BME280;43426;43.594;24.334;2023-11-21T08:14:41;100887.13;;;8.64;88.03
57600;BME280;43426;43.594;24.334;2023-11-21T08:17:07;100902.25;;;9.01;87.36
57600;BME280;43426;43.594;24.334;2023-11-21T08:19:32;100883.50;;;9.17;86.25
57600;BME280;43426;43.594;24.334;2023-11-21T08:22:00;100904.72;;;9.47;84.05
57600;BME280;43426;43.594;24.334;2023-11-21T08:24:33;100893.19;;;9.63;82.55
57600;BME280;43426;43.594;24.334;2023-11-21T08:27:00;100921.00;;;10.14;80.18
57600;BME280;43426;43.594;24.334;2023-11-21T08:29:28;100901.31;;;10.14;78.94
57600;BME280;43426;43.594;24.334;2023-11-21T08:31:53;100924.97;;;10.36;79.36
57600;BME280;43426;43.594;24.334;2023-11-21T08:34:20;100922.16;;;10.63;79.37
57600;BME280;43426;43.594;24.334;2023-11-21T08:36:51;100876.97;;;10.65;79.50
57600;BME280;43426;43.594;24.334;2023-11-21T08:39:18;100913.56;;;11.08;77.54
57600;BME280;43426;43.594;24.334;2023-11-21T08:41:44;100917.56;;;11.37;75.60
57600;BME280;43426;43.594;24.334;2023-11-21T08:44:09;100920.41;;;11.61;75.07
57600;BME280;43426;43.594;24.334;2023-11-21T08:46:36;100904.81;;;11.71;74.46
57600;BME280;43426;43.594;24.334;2023-11-21T08:49:03;100863.81;;;11.59;73.50
57600;BME280;43426;43.594;24.334;2023-11-21T08:51:28;100881.19;;;12.04;72.36
57600;BME280;43426;43.594;24.334;2023-11-21T08:53:54;100872.25;;;12.04;72.60
57600;BME280;43426;43.594;24.334;2023-11-21T08:56:20;100868.31;;;12.15;72.37
57600;BME280;43426;43.594;24.334;2023-11-21T08:58:46;100887.69;;;12.50;72.01
57600;BME280;43426;43.594;24.334;2023-11-21T09:01:15;100887.19;;;12.69;71.43
57600;BME280;43426;43.594;24.334;2023-11-21T09:03:41;100851.34;;;12.67;71.04
57600;BME280;43426;43.594;24.334;2023-11-21T09:06:07;100848.16;;;13.02;69.75
57600;BME280;43426;43.594;24.334;2023-11-21T09:08:35;100831.44;;;12.98;69.25
57600;BME280;43426;43.594;24.334;2023-11-21T09:11:00;100854.09;;;13.35;67.98
57600;BME280;43426;43.594;24.334;2023-11-21T09:13:25;100864.66;;;13.45;67.79
57600;BME280;43426;43.594;24.334;2023-11-21T09:15:51;100853.00;;;13.44;68.06
57600;BME280;43426;43.594;24.334;2023-11-21T09:18:16;100865.59;;;13.52;68.71
57600;BME280;43426;43.594;24.334;2023-11-21T09:20:42;100855.59;;;13.53;66.41
57600;BME280;43426;43.594;24.334;2023-11-21T09:23:10;100851.75;;;13.47;66.21
57600;BME280;43426;43.594;24.334;2023-11-21T09:25:36;100845.28;;;13.33;66.61
57600;BME280;43426;43.594;24.334;2023-11-21T09:28:03;100830.34;;;13.37;67.52
57600;BME280;43426;43.594;24.334;2023-11-21T09:30:34;100830.25;;;13.31;68.41
57600;BME280;43426;43.594;24.334;2023-11-21T09:33:00;100805.31;;;13.35;68.35
57600;BME280;43426;43.594;24.334;2023-11-21T09:35:26;100825.94;;;13.66;68.30
57600;BME280;43426;43.594;24.334;2023-11-21T09:37:53;100820.09;;;13.84;67.52
57600;BME280;43426;43.594;24.334;2023-11-21T09:40:21;100791.31;;;13.83;67.46
57600;BME280;43426;43.594;24.334;2023-11-21T09:42:56;100807.66;;;13.90;67.08
57600;BME280;43426;43.594;24.334;2023-11-21T09:45:29;100791.75;;;13.87;67.16
57600;BME280;43426;43.594;24.334;2023-11-21T09:47:59;100797.34;;;14.00;64.88
57600;BME280;43426;43.594;24.334;2023-11-21T09:50:26;100797.28;;;14.15;65.39
57600;BME280;43426;43.594;24.334;2023-11-21T09:55:34;100789.31;;;14.57;64.14
57600;BME280;43426;43.594;24.334;2023-11-21T09:58:02;100787.88;;;14.61;64.40
57600;BME280;43426;43.594;24.334;2023-11-21T10:00:33;100775.34;;;14.60;61.71
57600;BME280;43426;43.594;24.334;2023-11-21T10:02:59;100772.25;;;14.63;62.28
57600;BME280;43426;43.594;24.334;2023-11-21T10:05:25;100752.47;;;14.69;62.09
57600;BME280;43426;43.594;24.334;2023-11-21T10:07:51;100741.19;;;14.72;61.65
57600;BME280;43426;43.594;24.334;2023-11-21T10:10:19;100753.72;;;15.02;61.81
57600;BME280;43426;43.594;24.334;2023-11-21T10:12:49;100727.41;;;15.09;61.23
57600;BME280;43426;43.594;24.334;2023-11-21T10:15:23;100716.72;;;15.07;59.72
57600;BME280;43426;43.594;24.334;2023-11-21T10:17:52;100745.59;;;15.08;60.50
57600;BME280;43426;43.594;24.334;2023-11-21T10:20:19;100740.63;;;15.19;59.34
57600;BME280;43426;43.594;24.334;2023-11-21T10:22:45;100734.47;;;15.38;60.27
57600;BME280;43426;43.594;24.334;2023-11-21T10:25:11;100710.19;;;15.43;59.12
57600;BME280;43426;43.594;24.334;2023-11-21T10:27:40;100707.28;;;15.38;57.79
57600;BME280;43426;43.594;24.334;2023-11-21T10:30:05;100714.41;;;15.53;57.68
57600;BME280;43426;43.594;24.334;2023-11-21T10:32:31;100678.88;;;15.68;56.97
57600;BME280;43426;43.594;24.334;2023-11-21T10:35:01;100687.66;;;15.70;56.31
57600;BME280;43426;43.594;24.334;2023-11-21T10:37:34;100689.38;;;15.77;56.28
57600;BME280;43426;43.594;24.334;2023-11-21T10:40:00;100686.84;;;15.69;56.73
57600;BME280;43426;43.594;24.334;2023-11-21T10:42:26;100690.03;;;15.79;57.13
57600;BME280;43426;43.594;24.334;2023-11-21T10:44:53;100653.56;;;15.67;57.07
57600;BME280;43426;43.594;24.334;2023-11-21T10:47:19;100655.00;;;15.63;56.64
57600;BME280;43426;43.594;24.334;2023-11-21T10:49:48;100670.53;;;15.69;55.76
57600;BME280;43426;43.594;24.334;2023-11-21T10:52:13;100635.34;;;15.61;55.48
57600;BME280;43426;43.594;24.334;2023-11-21T10:54:43;100632.63;;;15.61;55.59
57600;BME280;43426;43.594;24.334;2023-11-21T10:57:10;100657.59;;;15.91;55.08
57600;BME280;43426;43.594;24.334;2023-11-21T10:59:36;100636.44;;;15.87;54.79
57600;BME280;43426;43.594;24.334;2023-11-21T11:02:07;100649.84;;;16.22;53.79
57600;BME280;43426;43.594;24.334;2023-11-21T11:04:48;100618.88;;;16.23;54.81
57600;BME280;43426;43.594;24.334;2023-11-21T11:07:14;100616.09;;;16.36;54.08
57600;BME280;43426;43.594;24.334;2023-11-21T11:09:41;100610.44;;;16.38;54.43
57600;BME280;43426;43.594;24.334;2023-11-21T11:12:07;100625.84;;;16.71;53.84
57600;BME280;43426;43.594;24.334;2023-11-21T11:14:35;100614.28;;;16.89;53.30
57600;BME280;43426;43.594;24.334;2023-11-21T11:17:02;100606.19;;;17.14;52.33
57600;BME280;43426;43.594;24.334;2023-11-21T11:19:29;100605.56;;;17.50;51.24
57600;BME280;43426;43.594;24.334;2023-11-21T11:25:21;100573.03;;;18.06;49.58
57600;BME280;43426;43.594;24.334;2023-11-21T11:27:29;100596.19;;;18.22;48.52
57600;BME280;43426;43.594;24.334;2023-11-21T11:35:35;100587.06;;;18.84;48.52
57600;BME280;43426;43.594;24.334;2023-11-21T11:38:03;100578.50;;;18.99;47.41
57600;BME280;43426;43.594;24.334;2023-11-21T11:40:38;100571.28;;;19.04;47.37
57600;BME280;43426;43.594;24.334;2023-11-21T11:43:06;100571.75;;;19.32;47.44
57600;BME280;43426;43.594;24.334;2023-11-21T11:45:33;100567.81;;;19.39;45.88
57600;BME280;43426;43.594;24.334;2023-11-21T11:48:01;100572.00;;;19.42;45.35
57600;BME280;43426;43.594;24.334;2023-11-21T11:50:28;100560.56;;;19.45;44.94
57600;BME280;43426;43.594;24.334;2023-11-21T11:52:54;100575.78;;;19.41;45.27
57600;BME280;43426;43.594;24.334;2023-11-21T11:55:24;100566.31;;;19.13;45.18
57600;BME280;43426;43.594;24.334;2023-11-21T11:57:54;100556.38;;;18.88;45.94
57600;BME280;43426;43.594;24.334;2023-11-21T12:02:53;100571.69;;;18.89;44.95
57600;BME280;43426;43.594;24.334;2023-11-21T12:05:20;100543.84;;;18.62;46.45
57600;BME280;43426;43.594;24.334;2023-11-21T12:07:51;100550.28;;;18.49;46.15
57600;BME280;43426;43.594;24.334;2023-11-21T12:10:40;100575.25;;;18.53;45.83
57600;BME280;43426;43.594;24.334;2023-11-21T12:13:07;100556.06;;;18.23;46.53
57600;BME280;43426;43.594;24.334;2023-11-21T12:15:34;100563.50;;;18.15;46.19
57600;BME280;43426;43.594;24.334;2023-11-21T12:18:00;100540.31;;;17.74;47.17
57600;BME280;43426;43.594;24.334;2023-11-21T12:20:26;100564.25;;;17.72;47.73
57600;BME280;43426;43.594;24.334;2023-11-21T12:22:54;100556.03;;;17.53;48.43
57600;BME280;43426;43.594;24.334;2023-11-21T12:25:21;100533.19;;;17.23;49.11
57600;BME280;43426;43.594;24.334;2023-11-21T12:27:48;100541.09;;;16.99;49.75
57600;BME280;43426;43.594;24.334;2023-11-21T12:30:22;100544.41;;;17.01;49.68
57600;BME280;43426;43.594;24.334;2023-11-21T12:32:52;100555.59;;;16.79;49.98
57600;BME280;43426;43.594;24.334;2023-11-21T12:35:28;100550.91;;;16.55;49.96
57600;BME280;43426;43.594;24.334;2023-11-21T12:37:55;100528.53;;;16.39;50.68
57600;BME280;43426;43.594;24.334;2023-11-21T12:40:24;100521.44;;;16.38;50.28
57600;BME280;43426;43.594;24.334;2023-11-21T12:42:58;100553.22;;;16.44;50.26
57600;BME280;43426;43.594;24.334;2023-11-21T12:45:28;100531.09;;;16.21;51.34
57600;BME280;43426;43.594;24.334;2023-11-21T12:48:04;100552.03;;;16.27;51.40
57600;BME280;43426;43.594;24.334;2023-11-21T12:50:35;100551.19;;;16.20;51.62
57600;BME280;43426;43.594;24.334;2023-11-21T12:55:31;100533.44;;;16.10;52.40